sensor_id;sensor_type;location;lat;lon;timestamp;pressure;altitude;pressure_sealevel;temperature;humidity
9335;BME280;4706;41.844;26.082;2022-07-29T00:01:17;100713.03;;;28.70;47.15
9335;BME280;4706;41.844;26.082;2022-07-29T00:03:43;100710.19;;;28.70;47.83
9335;BME280;4706;41.844;26.082;2022-07-29T00:06:08;100709.84;;;28.64;48.05
9335;BME280;4706;41.844;26.082;2022-07-29T00:08:34;100712.59;;;28.71;48.24
9335;BME280;4706;41.844;26.082;2022-07-29T00:11:00;100716.72;;;28.63;48.36
9335;BME280;4706;41.844;26.082;2022-07-29T00:13:26;100719.94;;;28.65;48.93
9335;BME280;4706;41.844;26.082;2022-07-29T00:15:51;100718.41;;;28.57;49.15
9335;BME280;4706;41.844;26.082;2022-07-29T00:18:17;100714.31;;;28.62;49.70
9335;BME280;4706;41.844;26.082;2022-07-29T00:20:43;100719.56;;;28.63;49.85
9335;BME280;4706;41.844;26.082;2022-07-29T00:23:08;100717.66;;;28.53;50.57
9335;BME280;4706;41.844;26.082;2022-07-29T00:25:34;100720.44;;;28.56;50.80
9335;BME280;4706;41.844;26.082;2022-07-29T00:27:59;100716.44;;;28.50;50.89
9335;BME280;4706;41.844;26.082;2022-07-29T00:30:25;100702.84;;;28.38;51.29
9335;BME280;4706;41.844;26.082;2022-07-29T00:32:51;100712.94;;;28.36;52.02
9335;BME280;4706;41.844;26.082;2022-07-29T00:35:16;100706.97;;;28.26;52.09
9335;BME280;4706;41.844;26.082;2022-07-29T00:38:00;100691.28;;;28.22;52.65
9335;BME280;4706;41.844;26.082;2022-07-29T00:40:26;100714.59;;;28.33;53.00
9335;BME280;4706;41.844;26.082;2022-07-29T00:42:52;100708.19;;;28.29;53.62
9335;BME280;4706;41.844;26.082;2022-07-29T00:45:18;100709.31;;;28.35;53.90
9335;BME280;4706;41.844;26.082;2022-07-29T00:47:44;100712.16;;;28.31;54.19
9335;BME280;4706;41.844;26.082;2022-07-29T00:50:12;100677.31;;;28.00;54.12
9335;BME280;4706;41.844;26.082;2022-07-29T00:52:39;100712.22;;;28.24;54.48
9335;BME280;4706;41.844;26.082;2022-07-29T00:55:08;100708.25;;;28.22;54.75
9335;BME280;4706;41.844;26.082;2022-07-29T00:57:35;100704.22;;;28.19;55.06
9335;BME280;4706;41.844;26.082;2022-07-29T01:00:05;100703.75;;;28.24;55.10
9335;BME280;4706;41.844;26.082;2022-07-29T01:02:31;100703.72;;;28.28;54.83
9335;BME280;4706;41.844;26.082;2022-07-29T01:04:57;100688.47;;;28.18;55.33
9335;BME280;4706;41.844;26.082;2022-07-29T01:07:24;100688.53;;;28.11;55.01
9335;BME280;4706;41.844;26.082;2022-07-29T01:09:51;100705.00;;;28.20;55.53
9335;BME280;4706;41.844;26.082;2022-07-29T01:12:21;100702.66;;;28.15;55.29
9335;BME280;4706;41.844;26.082;2022-07-29T01:14:49;100702.72;;;28.07;55.94
9335;BME280;4706;41.844;26.082;2022-07-29T01:20:10;100693.09;;;27.98;56.18
9335;BME280;4706;41.844;26.082;2022-07-29T01:25:48;100705.69;;;27.90;56.57
9335;BME280;4706;41.844;26.082;2022-07-29T01:31:11;100693.13;;;27.94;56.95
9335;BME280;4706;41.844;26.082;2022-07-29T01:33:43;100686.66;;;27.94;57.15
9335;BME280;4706;41.844;26.082;2022-07-29T01:36:26;100677.06;;;27.84;57.32
9335;BME280;4706;41.844;26.082;2022-07-29T01:39:06;100675.84;;;27.85;57.84
9335;BME280;4706;41.844;26.082;2022-07-29T01:41:34;100668.97;;;27.86;57.75
9335;BME280;4706;41.844;26.082;2022-07-29T01:44:15;100684.66;;;27.91;57.61
9335;BME280;4706;41.844;26.082;2022-07-29T01:46:49;100675.34;;;27.94;57.71
9335;BME280;4706;41.844;26.082;2022-07-29T01:49:21;100679.78;;;27.98;57.52
9335;BME280;4706;41.844;26.082;2022-07-29T01:51:57;100677.03;;;27.91;57.83
9335;BME280;4706;41.844;26.082;2022-07-29T01:55:02;100688.38;;;27.84;57.87
9335;BME280;4706;41.844;26.082;2022-07-29T01:57:31;100680.72;;;27.81;57.68
9335;BME280;4706;41.844;26.082;2022-07-29T01:59:59;100678.31;;;27.79;57.73
9335;BME280;4706;41.844;26.082;2022-07-29T02:02:28;100679.94;;;27.80;57.80
9335;BME280;4706;41.844;26.082;2022-07-29T02:04:56;100680.72;;;27.81;57.98
9335;BME280;4706;41.844;26.082;2022-07-29T02:07:24;100685.63;;;27.77;58.13
9335;BME280;4706;41.844;26.082;2022-07-29T02:09:52;100679.53;;;27.78;58.36
9335;BME280;4706;41.844;26.082;2022-07-29T02:12:20;100685.97;;;27.82;58.36
9335;BME280;4706;41.844;26.082;2022-07-29T02:14:53;100685.50;;;27.91;58.40
9335;BME280;4706;41.844;26.082;2022-07-29T02:17:26;100679.88;;;27.88;58.37
9335;BME280;4706;41.844;26.082;2022-07-29T02:19:56;100681.94;;;27.83;58.92
9335;BME280;4706;41.844;26.082;2022-07-29T02:22:24;100683.56;;;27.81;58.85
9335;BME280;4706;41.844;26.082;2022-07-29T02:24:51;100683.06;;;27.90;58.58
9335;BME280;4706;41.844;26.082;2022-07-29T02:27:18;100671.72;;;27.93;58.52
9335;BME280;4706;41.844;26.082;2022-07-29T02:29:47;100681.47;;;27.89;58.11
9335;BME280;4706;41.844;26.082;2022-07-29T02:32:14;100687.06;;;27.96;57.95
9335;BME280;4706;41.844;26.082;2022-07-29T02:34:42;100686.31;;;27.92;58.29
9335;BME280;4706;41.844;26.082;2022-07-29T02:37:10;100682.28;;;27.89;58.07
9335;BME280;4706;41.844;26.082;2022-07-29T02:39:37;100678.69;;;27.85;58.43
9335;BME280;4706;41.844;26.082;2022-07-29T02:42:07;100681.53;;;27.81;58.45
9335;BME280;4706;41.844;26.082;2022-07-29T02:44:35;100675.47;;;27.79;57.99
9335;BME280;4706;41.844;26.082;2022-07-29T02:47:10;100663.34;;;27.82;58.30
9335;BME280;4706;41.844;26.082;2022-07-29T02:49:43;100668.59;;;27.84;57.90
9335;BME280;4706;41.844;26.082;2022-07-29T02:52:20;100655.25;;;27.84;57.68
9335;BME280;4706;41.844;26.082;2022-07-29T02:54:57;100661.72;;;27.85;57.70
9335;BME280;4706;41.844;26.082;2022-07-29T02:59:53;100669.47;;;27.70;58.33
9335;BME280;4706;41.844;26.082;2022-07-29T03:02:23;100662.63;;;27.68;58.17
9335;BME280;4706;41.844;26.082;2022-07-29T03:04:51;100677.53;;;27.75;58.39
9335;BME280;4706;41.844;26.082;2022-07-29T03:07:19;100669.88;;;27.72;58.00
9335;BME280;4706;41.844;26.082;2022-07-29T03:09:46;100672.72;;;27.69;57.97
9335;BME280;4706;41.844;26.082;2022-07-29T03:12:12;100680.03;;;27.63;58.14
9335;BME280;4706;41.844;26.082;2022-07-29T03:14:39;100680.53;;;27.50;57.91
9335;BME280;4706;41.844;26.082;2022-07-29T03:17:05;100687.38;;;27.49;58.00
9335;BME280;4706;41.844;26.082;2022-07-29T03:19:31;100679.75;;;27.50;58.03
9335;BME280;4706;41.844;26.082;2022-07-29T03:21:58;100692.63;;;27.54;57.76
9335;BME280;4706;41.844;26.082;2022-07-29T03:24:25;100697.88;;;27.49;57.78
9335;BME280;4706;41.844;26.082;2022-07-29T03:26:51;100696.72;;;27.46;58.02
9335;BME280;4706;41.844;26.082;2022-07-29T03:29:17;100702.75;;;27.45;58.59
9335;BME280;4706;41.844;26.082;2022-07-29T03:31:42;100693.47;;;27.44;58.75
9335;BME280;4706;41.844;26.082;2022-07-29T03:34:08;100694.72;;;27.40;58.82
9335;BME280;4706;41.844;26.082;2022-07-29T03:36:33;100691.50;;;27.38;58.58
9335;BME280;4706;41.844;26.082;2022-07-29T03:39:00;100703.22;;;27.36;58.83
9335;BME280;4706;41.844;26.082;2022-07-29T03:41:27;100708.44;;;27.38;58.65
9335;BME280;4706;41.844;26.082;2022-07-29T03:43:55;100695.53;;;27.40;58.53
9335;BME280;4706;41.844;26.082;2022-07-29T03:46:23;100706.00;;;27.47;58.53
9335;BME280;4706;41.844;26.082;2022-07-29T03:48:55;100693.47;;;27.44;58.26
9335;BME280;4706;41.844;26.082;2022-07-29T03:51:25;100701.59;;;27.42;58.31
9335;BME280;4706;41.844;26.082;2022-07-29T03:53:51;100708.38;;;27.52;58.58
9335;BME280;4706;41.844;26.082;2022-07-29T03:56:20;100707.22;;;27.46;58.94
9335;BME280;4706;41.844;26.082;2022-07-29T03:58:48;100713.16;;;27.58;58.31
9335;BME280;4706;41.844;26.082;2022-07-29T04:01:15;100705.13;;;27.57;58.04
9335;BME280;4706;41.844;26.082;2022-07-29T04:03:43;100705.78;;;27.75;56.93
9335;BME280;4706;41.844;26.082;2022-07-29T04:06:12;100715.38;;;27.92;56.53
9335;BME280;4706;41.844;26.082;2022-07-29T04:08:37;100706.81;;;27.99;55.86
9335;BME280;4706;41.844;26.082;2022-07-29T04:11:04;100707.13;;;28.08;55.20
9335;BME280;4706;41.844;26.082;2022-07-29T04:13:31;100717.63;;;28.12;55.14
9335;BME280;4706;41.844;26.082;2022-07-29T04:15:57;100720.38;;;28.19;54.45
9335;BME280;4706;41.844;26.082;2022-07-29T04:18:24;100720.38;;;28.19;54.91
9335;BME280;4706;41.844;26.082;2022-07-29T04:20:49;100721.13;;;28.26;54.80
9335;BME280;4706;41.844;26.082;2022-07-29T04:23:15;100728.31;;;28.35;54.60
9335;BME280;4706;41.844;26.082;2022-07-29T04:25:41;100729.47;;;28.44;54.39
9335;BME280;4706;41.844;26.082;2022-07-29T04:28:07;100725.31;;;28.56;53.23
9335;BME280;4706;41.844;26.082;2022-07-29T04:30:35;100732.38;;;28.75;53.13
9335;BME280;4706;41.844;26.082;2022-07-29T04:33:02;100732.59;;;28.88;52.61
9335;BME280;4706;41.844;26.082;2022-07-29T04:35:29;100737.44;;;28.91;52.69
9335;BME280;4706;41.844;26.082;2022-07-29T04:37:55;100740.22;;;28.98;52.39
9335;BME280;4706;41.844;26.082;2022-07-29T04:40:20;100740.91;;;29.06;52.13
9335;BME280;4706;41.844;26.082;2022-07-29T04:42:46;100744.38;;;29.20;52.02
9335;BME280;4706;41.844;26.082;2022-07-29T04:45:11;100753.59;;;29.28;51.39
9335;BME280;4706;41.844;26.082;2022-07-29T04:47:37;100746.97;;;29.38;51.50
9335;BME280;4706;41.844;26.082;2022-07-29T04:50:02;100740.81;;;29.43;50.95
9335;BME280;4706;41.844;26.082;2022-07-29T04:52:28;100742.38;;;29.48;51.03
9335;BME280;4706;41.844;26.082;2022-07-29T04:54:54;100760.50;;;29.58;50.46
9335;BME280;4706;41.844;26.082;2022-07-29T04:57:19;100759.94;;;29.66;50.36
9335;BME280;4706;41.844;26.082;2022-07-29T04:59:45;100754.91;;;29.77;49.88
9335;BME280;4706;41.844;26.082;2022-07-29T05:02:10;100751.72;;;29.75;49.92
9335;BME280;4706;41.844;26.082;2022-07-29T05:04:36;100762.88;;;29.86;49.32
9335;BME280;4706;41.844;26.082;2022-07-29T05:07:02;100757.69;;;29.81;49.31
9335;BME280;4706;41.844;26.082;2022-07-29T05:09:27;100767.41;;;29.84;49.51
9335;BME280;4706;41.844;26.082;2022-07-29T05:11:53;100759.13;;;29.93;49.25
9335;BME280;4706;41.844;26.082;2022-07-29T05:14:18;100760.72;;;29.94;49.06
9335;BME280;4706;41.844;26.082;2022-07-29T05:16:44;100769.06;;;30.05;49.23
9335;BME280;4706;41.844;26.082;2022-07-29T05:19:09;100766.47;;;30.17;48.83
9335;BME280;4706;41.844;26.082;2022-07-29T05:21:35;100763.19;;;30.19;49.25
9335;BME280;4706;41.844;26.082;2022-07-29T05:24:00;100756.03;;;30.34;49.19
9335;BME280;4706;41.844;26.082;2022-07-29T05:26:26;100762.38;;;30.42;48.89
9335;BME280;4706;41.844;26.082;2022-07-29T05:28:52;100763.78;;;30.54;48.82
9335;BME280;4706;41.844;26.082;2022-07-29T05:31:19;100759.44;;;30.69;48.38
9335;BME280;4706;41.844;26.082;2022-07-29T05:33:45;100761.69;;;30.81;47.91
9335;BME280;4706;41.844;26.082;2022-07-29T05:36:11;100767.44;;;30.98;48.03
9335;BME280;4706;41.844;26.082;2022-07-29T05:38:37;100766.13;;;31.22;47.10
9335;BME280;4706;41.844;26.082;2022-07-29T05:41:05;100771.44;;;31.40;46.76
9335;BME280;4706;41.844;26.082;2022-07-29T05:43:31;100747.72;;;31.30;46.75
9335;BME280;4706;41.844;26.082;2022-07-29T05:45:57;100774.97;;;31.64;46.29
9335;BME280;4706;41.844;26.082;2022-07-29T05:48:22;100765.56;;;31.83;45.88
9335;BME280;4706;41.844;26.082;2022-07-29T05:50:48;100762.22;;;31.88;46.23
9335;BME280;4706;41.844;26.082;2022-07-29T05:53:14;100769.63;;;32.02;45.95
9335;BME280;4706;41.844;26.082;2022-07-29T05:55:39;100773.59;;;32.21;45.07
9335;BME280;4706;41.844;26.082;2022-07-29T05:58:05;100778.47;;;32.37;45.14
9335;BME280;4706;41.844;26.082;2022-07-29T06:00:30;100778.66;;;32.62;44.26
9335;BME280;4706;41.844;26.082;2022-07-29T06:02:56;100778.97;;;32.81;43.75
9335;BME280;4706;41.844;26.082;2022-07-29T06:05:22;100782.69;;;32.94;43.53
9335;BME280;4706;41.844;26.082;2022-07-29T06:07:48;100781.59;;;33.04;42.95
9335;BME280;4706;41.844;26.082;2022-07-29T06:10:14;100783.31;;;33.15;42.63
9335;BME280;4706;41.844;26.082;2022-07-29T06:12:39;100782.91;;;33.29;42.43
9335;BME280;4706;41.844;26.082;2022-07-29T06:15:05;100778.28;;;33.48;42.02
9335;BME280;4706;41.844;26.082;2022-07-29T06:17:31;100767.47;;;33.55;41.30
9335;BME280;4706;41.844;26.082;2022-07-29T06:19:57;100770.09;;;33.75;40.85
9335;BME280;4706;41.844;26.082;2022-07-29T06:22:22;100773.47;;;33.96;40.70
9335;BME280;4706;41.844;26.082;2022-07-29T06:24:48;100772.59;;;34.12;40.48
9335;BME280;4706;41.844;26.082;2022-07-29T06:27:13;100764.78;;;34.25;39.91
9335;BME280;4706;41.844;26.082;2022-07-29T06:29:39;100766.38;;;34.39;39.53
9335;BME280;4706;41.844;26.082;2022-07-29T06:32:04;100756.72;;;34.45;39.40
9335;BME280;4706;41.844;26.082;2022-07-29T06:34:30;100750.22;;;34.45;39.06
9335;BME280;4706;41.844;26.082;2022-07-29T06:36:56;100758.00;;;34.57;39.10
9335;BME280;4706;41.844;26.082;2022-07-29T06:39:21;100751.22;;;34.64;38.69
9335;BME280;4706;41.844;26.082;2022-07-29T06:41:48;100750.25;;;34.79;38.57
9335;BME280;4706;41.844;26.082;2022-07-29T06:44:17;100751.75;;;34.93;37.95
9335;BME280;4706;41.844;26.082;2022-07-29T06:46:43;100743.81;;;35.10;37.38
9335;BME280;4706;41.844;26.082;2022-07-29T06:49:09;100750.56;;;35.25;37.01
9335;BME280;4706;41.844;26.082;2022-07-29T06:51:35;100721.63;;;35.23;36.64
9335;BME280;4706;41.844;26.082;2022-07-29T06:54:01;100748.22;;;35.55;36.16
9335;BME280;4706;41.844;26.082;2022-07-29T06:56:27;100749.03;;;35.65;35.79
9335;BME280;4706;41.844;26.082;2022-07-29T06:58:53;100738.88;;;35.73;35.75
9335;BME280;4706;41.844;26.082;2022-07-29T07:01:18;100718.97;;;35.51;35.71
9335;BME280;4706;41.844;26.082;2022-07-29T07:03:45;100737.78;;;35.70;35.35
9335;BME280;4706;41.844;26.082;2022-07-29T07:06:10;100734.34;;;35.85;35.03
9335;BME280;4706;41.844;26.082;2022-07-29T07:08:36;100732.94;;;35.98;34.75
9335;BME280;4706;41.844;26.082;2022-07-29T07:11:01;100735.50;;;36.06;34.57
9335;BME280;4706;41.844;26.082;2022-07-29T07:13:27;100728.19;;;36.14;34.56
9335;BME280;4706;41.844;26.082;2022-07-29T07:15:56;100724.56;;;36.22;33.73
9335;BME280;4706;41.844;26.082;2022-07-29T07:18:22;100721.56;;;36.26;33.81
9335;BME280;4706;41.844;26.082;2022-07-29T07:20:48;100725.69;;;36.34;33.52
9335;BME280;4706;41.844;26.082;2022-07-29T07:23:14;100727.00;;;36.52;33.26
9335;BME280;4706;41.844;26.082;2022-07-29T07:25:39;100715.69;;;36.66;32.71
9335;BME280;4706;41.844;26.082;2022-07-29T07:28:05;100712.03;;;36.75;32.62
9335;BME280;4706;41.844;26.082;2022-07-29T07:30:30;100719.94;;;36.89;32.58
9335;BME280;4706;41.844;26.082;2022-07-29T07:32:56;100707.06;;;37.03;32.14
9335;BME280;4706;41.844;26.082;2022-07-29T07:35:21;100709.25;;;37.08;32.08
9335;BME280;4706;41.844;26.082;2022-07-29T07:37:47;100708.88;;;37.34;30.80
9335;BME280;4706;41.844;26.082;2022-07-29T07:40:13;100706.31;;;37.36;30.88
9335;BME280;4706;41.844;26.082;2022-07-29T07:42:40;100720.00;;;37.50;30.80
9335;BME280;4706;41.844;26.082;2022-07-29T07:45:06;100717.19;;;37.65;29.93
9335;BME280;4706;41.844;26.082;2022-07-29T07:47:35;100711.91;;;37.73;30.27
9335;BME280;4706;41.844;26.082;2022-07-29T07:50:00;100704.22;;;37.88;29.62
9335;BME280;4706;41.844;26.082;2022-07-29T07:52:26;100704.22;;;37.79;29.40
9335;BME280;4706;41.844;26.082;2022-07-29T07:54:51;100702.50;;;37.72;28.81
9335;BME280;4706;41.844;26.082;2022-07-29T07:57:18;100704.03;;;37.82;29.38
9335;BME280;4706;41.844;26.082;2022-07-29T07:59:43;100704.22;;;37.79;29.38
9335;BME280;4706;41.844;26.082;2022-07-29T08:02:09;100704.31;;;37.60;29.45
9335;BME280;4706;41.844;26.082;2022-07-29T08:04:35;100703.84;;;37.62;29.16
9335;BME280;4706;41.844;26.082;2022-07-29T08:07:02;100706.81;;;37.67;29.23
9335;BME280;4706;41.844;26.082;2022-07-29T08:09:28;100706.38;;;37.60;29.11
9335;BME280;4706;41.844;26.082;2022-07-29T08:11:55;100709.47;;;36.95;29.64
9335;BME280;4706;41.844;26.082;2022-07-29T08:14:21;100711.88;;;36.60;29.10
9335;BME280;4706;41.844;26.082;2022-07-29T08:16:47;100690.50;;;36.24;29.03
9335;BME280;4706;41.844;26.082;2022-07-29T08:19:12;100706.81;;;35.87;29.68
9335;BME280;4706;41.844;26.082;2022-07-29T08:21:38;100707.88;;;35.71;30.58
9335;BME280;4706;41.844;26.082;2022-07-29T08:24:04;100700.28;;;35.78;30.66
9335;BME280;4706;41.844;26.082;2022-07-29T08:26:49;100700.78;;;35.94;30.37
9335;BME280;4706;41.844;26.082;2022-07-29T08:29:14;100710.03;;;35.98;30.19
9335;BME280;4706;41.844;26.082;2022-07-29T08:31:40;100720.09;;;35.63;30.79
9335;BME280;4706;41.844;26.082;2022-07-29T08:34:06;100700.88;;;35.63;30.19
9335;BME280;4706;41.844;26.082;2022-07-29T08:36:32;100717.63;;;35.83;30.61
9335;BME280;4706;41.844;26.082;2022-07-29T08:38:59;100703.78;;;35.91;29.80
9335;BME280;4706;41.844;26.082;2022-07-29T08:41:25;100717.38;;;36.09;29.89
9335;BME280;4706;41.844;26.082;2022-07-29T08:43:51;100713.09;;;36.41;29.21
9335;BME280;4706;41.844;26.082;2022-07-29T08:46:18;100715.66;;;36.20;29.78
9335;BME280;4706;41.844;26.082;2022-07-29T08:48:44;100698.00;;;36.31;29.02
9335;BME280;4706;41.844;26.082;2022-07-29T08:51:17;100702.44;;;36.32;29.36
9335;BME280;4706;41.844;26.082;2022-07-29T08:53:45;100693.88;;;36.51;28.81
9335;BME280;4706;41.844;26.082;2022-07-29T08:56:17;100699.59;;;36.78;28.73
9335;BME280;4706;41.844;26.082;2022-07-29T08:58:44;100686.03;;;36.88;28.15
9335;BME280;4706;41.844;26.082;2022-07-29T09:01:12;100693.06;;;36.96;28.31
9335;BME280;4706;41.844;26.082;2022-07-29T09:03:40;100688.09;;;36.97;27.74
9335;BME280;4706;41.844;26.082;2022-07-29T09:06:05;100685.63;;;37.32;27.22
9335;BME280;4706;41.844;26.082;2022-07-29T09:08:33;100682.41;;;37.39;28.09
9335;BME280;4706;41.844;26.082;2022-07-29T09:11:01;100677.78;;;37.41;28.30
9335;BME280;4706;41.844;26.082;2022-07-29T09:13:26;100668.47;;;37.56;27.97
9335;BME280;4706;41.844;26.082;2022-07-29T09:15:52;100671.94;;;37.84;27.65
9335;BME280;4706;41.844;26.082;2022-07-29T09:18:35;100686.63;;;37.86;27.90
9335;BME280;4706;41.844;26.082;2022-07-29T09:21:02;100678.03;;;37.53;26.75
9335;BME280;4706;41.844;26.082;2022-07-29T09:24:09;100689.16;;;37.60;27.05
9335;BME280;4706;41.844;26.082;2022-07-29T09:26:40;100688.63;;;37.47;27.15
9335;BME280;4706;41.844;26.082;2022-07-29T09:31:40;100692.44;;;37.34;27.46
9335;BME280;4706;41.844;26.082;2022-07-29T09:34:07;100684.47;;;37.72;27.79
9335;BME280;4706;41.844;26.082;2022-07-29T09:36:45;100682.41;;;38.20;27.09
9335;BME280;4706;41.844;26.082;2022-07-29T09:39:12;100677.69;;;38.56;26.02
9335;BME280;4706;41.844;26.082;2022-07-29T09:41:46;100670.94;;;38.59;26.27
9335;BME280;4706;41.844;26.082;2022-07-29T09:44:12;100667.63;;;38.90;25.95
9335;BME280;4706;41.844;26.082;2022-07-29T09:46:38;100660.81;;;39.38;26.32
9335;BME280;4706;41.844;26.082;2022-07-29T09:49:08;100660.78;;;39.88;25.26
9335;BME280;4706;41.844;26.082;2022-07-29T09:51:34;100655.66;;;40.38;24.83
9335;BME280;4706;41.844;26.082;2022-07-29T09:54:00;100661.75;;;40.46;23.40
9335;BME280;4706;41.844;26.082;2022-07-29T09:56:42;100655.13;;;39.58;25.08
9335;BME280;4706;41.844;26.082;2022-07-29T09:59:08;100653.75;;;39.53;25.07
9335;BME280;4706;41.844;26.082;2022-07-29T10:01:34;100657.09;;;38.87;26.51
9335;BME280;4706;41.844;26.082;2022-07-29T10:04:01;100650.50;;;38.42;27.03
9335;BME280;4706;41.844;26.082;2022-07-29T10:06:27;100652.28;;;38.39;27.08
9335;BME280;4706;41.844;26.082;2022-07-29T10:08:53;100643.88;;;38.51;27.37
9335;BME280;4706;41.844;26.082;2022-07-29T10:11:20;100626.94;;;39.12;26.41
9335;BME280;4706;41.844;26.082;2022-07-29T10:13:47;100634.72;;;39.41;25.48
9335;BME280;4706;41.844;26.082;2022-07-29T10:16:14;100632.25;;;39.90;25.11
9335;BME280;4706;41.844;26.082;2022-07-29T10:18:42;100640.59;;;40.08;25.14
9335;BME280;4706;41.844;26.082;2022-07-29T10:21:09;100642.28;;;40.15;24.25
9335;BME280;4706;41.844;26.082;2022-07-29T10:23:35;100624.72;;;40.39;23.77
9335;BME280;4706;41.844;26.082;2022-07-29T10:26:03;100624.47;;;40.37;23.88
9335;BME280;4706;41.844;26.082;2022-07-29T10:28:31;100618.88;;;40.07;24.24
9335;BME280;4706;41.844;26.082;2022-07-29T10:31:05;100612.47;;;39.77;24.37
9335;BME280;4706;41.844;26.082;2022-07-29T10:41:53;100615.50;;;39.18;25.79
9335;BME280;4706;41.844;26.082;2022-07-29T10:44:22;100594.19;;;39.24;25.10
9335;BME280;4706;41.844;26.082;2022-07-29T10:46:50;100611.31;;;39.33;25.23
9335;BME280;4706;41.844;26.082;2022-07-29T10:49:23;100603.00;;;39.56;24.69
9335;BME280;4706;41.844;26.082;2022-07-29T10:52:00;100594.94;;;40.01;24.68
9335;BME280;4706;41.844;26.082;2022-07-29T10:59:36;100589.75;;;40.05;24.11
9335;BME280;4706;41.844;26.082;2022-07-29T11:02:02;100586.66;;;40.09;23.82
9335;BME280;4706;41.844;26.082;2022-07-29T11:07:16;100585.59;;;39.65;24.83
9335;BME280;4706;41.844;26.082;2022-07-29T11:09:42;100587.28;;;39.92;24.61
9335;BME280;4706;41.844;26.082;2022-07-29T11:15:09;100581.00;;;40.66;23.60
9335;BME280;4706;41.844;26.082;2022-07-29T11:20:45;100581.00;;;41.35;22.13
9335;BME280;4706;41.844;26.082;2022-07-29T11:23:38;100577.22;;;40.86;22.50
9335;BME280;4706;41.844;26.082;2022-07-29T11:26:15;100575.88;;;40.03;23.26
9335;BME280;4706;41.844;26.082;2022-07-29T11:29:12;100577.06;;;39.71;23.01
9335;BME280;4706;41.844;26.082;2022-07-29T11:31:46;100563.56;;;39.82;23.33
9335;BME280;4706;41.844;26.082;2022-07-29T11:47:41;100554.19;;;39.67;22.65
9335;BME280;4706;41.844;26.082;2022-07-29T11:50:09;100540.66;;;39.94;21.95
9335;BME280;4706;41.844;26.082;2022-07-29T11:52:46;100547.03;;;39.77;22.31
9335;BME280;4706;41.844;26.082;2022-07-29T11:55:17;100530.56;;;40.04;22.36
9335;BME280;4706;41.844;26.082;2022-07-29T11:57:50;100532.50;;;40.13;22.22
9335;BME280;4706;41.844;26.082;2022-07-29T12:00:35;100519.59;;;40.08;21.65
9335;BME280;4706;41.844;26.082;2022-07-29T12:03:05;100525.16;;;40.12;21.97
9335;BME280;4706;41.844;26.082;2022-07-29T12:05:44;100524.28;;;40.05;21.55
9335;BME280;4706;41.844;26.082;2022-07-29T12:08:15;100517.41;;;39.97;22.18
9335;BME280;4706;41.844;26.082;2022-07-29T12:10:44;100519.03;;;39.57;23.11
9335;BME280;4706;41.844;26.082;2022-07-29T12:13:13;100520.56;;;39.18;22.98
9335;BME280;4706;41.844;26.082;2022-07-29T12:15:40;100513.63;;;38.74;24.10
9335;BME280;4706;41.844;26.082;2022-07-29T12:18:18;100511.94;;;38.82;23.82
9335;BME280;4706;41.844;26.082;2022-07-29T12:20:46;100514.63;;;38.86;23.66
9335;BME280;4706;41.844;26.082;2022-07-29T12:23:12;100515.28;;;38.96;23.29
9335;BME280;4706;41.844;26.082;2022-07-29T12:25:40;100509.06;;;39.18;23.68
9335;BME280;4706;41.844;26.082;2022-07-29T12:28:09;100495.00;;;39.40;23.02
9335;BME280;4706;41.844;26.082;2022-07-29T12:30:54;100519.19;;;39.69;22.85
9335;BME280;4706;41.844;26.082;2022-07-29T12:33:21;100506.50;;;39.40;22.21
9335;BME280;4706;41.844;26.082;2022-07-29T12:35:58;100483.00;;;39.06;22.19
9335;BME280;4706;41.844;26.082;2022-07-29T12:38:25;100494.00;;;39.08;22.59
9335;BME280;4706;41.844;26.082;2022-07-29T12:40:53;100486.44;;;38.90;22.37
9335;BME280;4706;41.844;26.082;2022-07-29T12:43:23;100485.44;;;38.93;22.85
9335;BME280;4706;41.844;26.082;2022-07-29T12:45:56;100473.75;;;39.17;23.00
9335;BME280;4706;41.844;26.082;2022-07-29T12:48:42;100471.31;;;39.51;21.76
9335;BME280;4706;41.844;26.082;2022-07-29T12:51:08;100475.72;;;39.46;22.50
9335;BME280;4706;41.844;26.082;2022-07-29T12:53:36;100462.56;;;39.40;22.54
9335;BME280;4706;41.844;26.082;2022-07-29T12:56:03;100470.81;;;39.32;22.77
9335;BME280;4706;41.844;26.082;2022-07-29T12:58:38;100463.72;;;39.27;22.30
9335;BME280;4706;41.844;26.082;2022-07-29T13:01:16;100467.97;;;38.97;22.33
9335;BME280;4706;41.844;26.082;2022-07-29T13:09:11;100455.88;;;38.57;23.06
9335;BME280;4706;41.844;26.082;2022-07-29T13:11:44;100459.28;;;38.41;23.25
9335;BME280;4706;41.844;26.082;2022-07-29T13:14:12;100453.19;;;38.24;23.36
9335;BME280;4706;41.844;26.082;2022-07-29T13:19:43;100461.44;;;38.02;23.71
9335;BME280;4706;41.844;26.082;2022-07-29T13:22:11;100458.94;;;37.95;24.36
9335;BME280;4706;41.844;26.082;2022-07-29T13:24:57;100463.72;;;37.98;24.55
9335;BME280;4706;41.844;26.082;2022-07-29T13:27:25;100456.44;;;37.87;24.56
9335;BME280;4706;41.844;26.082;2022-07-29T13:29:52;100467.22;;;37.78;24.96
9335;BME280;4706;41.844;26.082;2022-07-29T13:32:19;100460.31;;;37.70;25.19
9335;BME280;4706;41.844;26.082;2022-07-29T13:34:45;100470.38;;;37.80;24.74
9335;BME280;4706;41.844;26.082;2022-07-29T13:37:11;100452.69;;;37.81;24.10
9335;BME280;4706;41.844;26.082;2022-07-29T13:39:36;100466.25;;;37.81;24.50
9335;BME280;4706;41.844;26.082;2022-07-29T13:42:04;100461.56;;;37.68;24.52
9335;BME280;4706;41.844;26.082;2022-07-29T13:44:30;100452.53;;;37.61;24.64
9335;BME280;4706;41.844;26.082;2022-07-29T13:46:55;100452.91;;;37.54;23.70
9335;BME280;4706;41.844;26.082;2022-07-29T13:49:21;100453.31;;;37.47;24.33
9335;BME280;4706;41.844;26.082;2022-07-29T13:51:49;100463.63;;;37.29;23.97
9335;BME280;4706;41.844;26.082;2022-07-29T13:54:14;100466.50;;;37.29;23.96
9335;BME280;4706;41.844;26.082;2022-07-29T13:56:40;100454.53;;;37.31;24.20
9335;BME280;4706;41.844;26.082;2022-07-29T13:59:06;100463.94;;;37.31;24.42
9335;BME280;4706;41.844;26.082;2022-07-29T14:01:37;100456.00;;;37.26;23.59
9335;BME280;4706;41.844;26.082;2022-07-29T14:04:03;100447.47;;;37.17;23.24